createdAt,value
2023-04-10T00:01:01.846Z,4.68
2023-04-10T00:03:25.323Z,4.60
2023-04-10T00:05:48.285Z,4.62
2023-04-10T00:08:10.938Z,4.54
2023-04-10T00:10:33.663Z,4.53
2023-04-10T00:12:56.538Z,4.54
2023-04-10T00:15:19.293Z,4.57
2023-04-10T00:17:42.036Z,4.60
2023-04-10T00:20:06.052Z,4.54
2023-04-10T00:22:30.423Z,4.62
2023-04-10T00:24:53.204Z,4.56
2023-04-10T00:27:15.833Z,4.53
2023-04-10T00:29:38.764Z,4.54
2023-04-10T00:32:01.369Z,4.47
2023-04-10T00:34:24.333Z,4.49
2023-04-10T00:36:47.527Z,4.50
2023-04-10T00:39:10.263Z,4.49
2023-04-10T00:41:33.503Z,4.41
2023-04-10T00:43:57.361Z,4.40
2023-04-10T00:46:20.492Z,4.34
2023-04-10T00:48:43.594Z,4.34
2023-04-10T00:51:06.654Z,4.32
2023-04-10T00:53:29.790Z,4.36
2023-04-10T00:55:53.058Z,4.23
2023-04-10T00:58:16.125Z,4.30
2023-04-10T01:00:38.702Z,4.29
2023-04-10T01:03:01.780Z,4.17
2023-04-10T01:05:25.595Z,4.20
2023-04-10T01:08:05.697Z,4.19
2023-04-10T01:10:54.565Z,4.19
2023-04-10T01:13:26.928Z,4.22
2023-04-10T01:16:01.799Z,4.22
2023-04-10T01:18:39.636Z,4.16
2023-04-10T01:21:03.049Z,4.09
2023-04-10T01:23:42.280Z,4.07
2023-04-10T01:26:07.637Z,4.16
2023-04-10T01:28:47.565Z,4.06
2023-04-10T01:31:15.649Z,4.13
2023-04-10T01:33:48.544Z,4.09
2023-04-10T01:36:13.210Z,4.13
2023-04-10T01:38:37.916Z,4.12
2023-04-10T01:41:01.733Z,4.07
2023-04-10T01:43:27.117Z,4.05
2023-04-10T01:45:52.070Z,4.09
2023-04-10T01:48:16.642Z,4.06
2023-04-10T01:50:40.777Z,4.06
2023-04-10T01:53:06.021Z,4.02
2023-04-10T01:55:31.966Z,3.96
2023-04-10T01:58:00.177Z,3.93
2023-04-10T02:00:23.260Z,4.01
2023-04-10T02:02:47.349Z,4.06
2023-04-10T02:05:13.342Z,4.07
2023-04-10T02:07:44.165Z,3.96
2023-04-10T02:10:21.534Z,3.95
2023-04-10T02:12:55.646Z,4.03
2023-04-10T02:15:20.962Z,4.02
2023-04-10T02:17:44.342Z,4.01
2023-04-10T02:20:09.139Z,4.07
2023-04-10T02:22:33.784Z,4.07
2023-04-10T02:24:57.584Z,4.05
2023-04-10T02:27:34.539Z,3.98
2023-04-10T02:29:57.222Z,3.95
2023-04-10T02:32:20.491Z,4.05
2023-04-10T02:34:43.907Z,3.99
2023-04-10T02:37:06.492Z,3.98
2023-04-10T02:39:29.695Z,3.95
2023-04-10T02:41:52.438Z,3.98
2023-04-10T02:44:15.083Z,3.96
2023-04-10T02:46:38.627Z,3.99
2023-04-10T02:49:01.717Z,3.93
2023-04-10T02:51:24.475Z,4.07
2023-04-10T02:53:48.272Z,4.06
2023-04-10T02:56:20.920Z,4.06
2023-04-10T02:58:46.214Z,4.09
2023-04-10T03:01:10.265Z,4.01
2023-04-10T03:03:43.833Z,4.07
2023-04-10T03:06:09.019Z,4.05
2023-04-10T03:08:32.715Z,4.05
2023-04-10T03:10:55.442Z,3.99
2023-04-10T03:13:18.535Z,3.95
2023-04-10T03:15:41.659Z,3.99
2023-04-10T03:18:07.408Z,3.92
2023-04-10T03:20:30.134Z,3.99
2023-04-10T03:22:53.197Z,3.98
2023-04-10T03:25:16.610Z,4.09
2023-04-10T03:27:39.238Z,4.07
2023-04-10T03:30:03.692Z,4.10
2023-04-10T03:32:33.993Z,4.07
2023-04-10T03:34:58.051Z,4.05
2023-04-10T03:37:20.713Z,4.05
2023-04-10T03:39:43.319Z,4.01
2023-04-10T03:42:09.745Z,3.96
2023-04-10T03:44:34.289Z,3.96
2023-04-10T03:46:59.388Z,3.98
2023-04-10T03:49:22.600Z,3.91
2023-04-10T03:51:47.760Z,3.81
2023-04-10T03:54:10.571Z,3.85
2023-04-10T03:56:33.185Z,3.78
2023-04-10T03:58:56.931Z,3.91
2023-04-10T04:01:20.706Z,3.92
2023-04-10T04:04:01.390Z,3.96
2023-04-10T04:06:44.859Z,3.88
2023-04-10T04:09:19.686Z,3.84
2023-04-10T04:12:00.447Z,3.85
2023-04-10T04:14:44.794Z,3.82
2023-04-10T04:17:22.808Z,3.82
2023-04-10T04:20:05.144Z,3.89
2023-04-10T04:22:46.439Z,3.92
2023-04-10T04:25:29.420Z,3.92
2023-04-10T04:28:17.591Z,3.85
2023-04-10T04:30:54.304Z,3.95
2023-04-10T04:33:22.594Z,3.92
2023-04-10T04:36:01.752Z,3.91
2023-04-10T04:38:43.396Z,4.02
2023-04-10T04:41:20.619Z,4.14
2023-04-10T04:44:02.448Z,4.17
2023-04-10T04:46:44.728Z,4.29
2023-04-10T04:49:42.966Z,4.30
2023-04-10T04:52:20.077Z,4.41
2023-04-10T04:54:56.908Z,4.61
2023-04-10T04:57:37.938Z,4.91
2023-04-10T05:00:20.915Z,5.23
2023-04-10T05:02:49.624Z,5.65
2023-04-10T05:05:44.627Z,6.16
2023-04-10T05:08:07.513Z,6.63
2023-04-10T05:10:59.000Z,7.16
2023-04-10T05:13:40.564Z,7.90
2023-04-10T05:16:29.509Z,8.50
2023-04-10T05:19:09.994Z,8.81
2023-04-10T05:22:05.418Z,8.76
2023-04-10T05:25:06.689Z,9.66
2023-04-10T05:27:44.265Z,10.48
2023-04-10T05:30:25.971Z,11.20
2023-04-10T05:33:05.393Z,11.86
2023-04-10T05:35:30.854Z,12.44
2023-04-10T05:38:13.793Z,12.47
2023-04-10T05:41:09.080Z,12.03
2023-04-10T05:43:51.186Z,12.23
2023-04-10T05:46:40.207Z,12.42
2023-04-10T05:49:19.152Z,11.93
2023-04-10T05:52:00.307Z,11.72
2023-04-10T05:54:41.395Z,11.21
2023-04-10T05:57:20.974Z,12.10
2023-04-10T05:59:59.516Z,13.53
2023-04-10T06:02:39.143Z,14.32
2023-04-10T06:05:05.546Z,15.18
2023-04-10T06:07:30.061Z,15.86
2023-04-10T06:09:53.093Z,16.25
2023-04-10T06:12:15.793Z,16.11
2023-04-10T06:14:39.139Z,15.91
2023-04-10T06:17:02.239Z,15.79
2023-04-10T06:19:25.055Z,15.40
2023-04-10T06:21:47.728Z,14.64
2023-04-10T06:24:12.358Z,15.02
2023-04-10T06:26:35.480Z,14.70
2023-04-10T06:29:00.546Z,14.28
2023-04-10T06:31:24.824Z,13.89
2023-04-10T06:33:49.058Z,13.75
2023-04-10T06:36:11.767Z,13.86
2023-04-10T06:38:40.739Z,14.89
2023-04-10T06:41:05.354Z,15.66
2023-04-10T06:43:28.244Z,15.96
2023-04-10T06:45:51.099Z,15.08
2023-04-10T06:48:14.533Z,14.53
2023-04-10T06:50:37.153Z,14.11
2023-04-10T06:53:00.238Z,13.68
2023-04-10T06:55:24.341Z,14.23
2023-04-10T06:57:46.999Z,15.12
2023-04-10T07:00:10.462Z,15.36
2023-04-10T07:02:33.418Z,15.33
2023-04-10T07:04:56.945Z,15.31
2023-04-10T07:07:19.952Z,15.11
2023-04-10T07:09:42.595Z,14.99
2023-04-10T07:12:05.553Z,14.92
2023-04-10T07:14:28.207Z,15.24
2023-04-10T07:16:51.373Z,15.70
2023-04-10T07:19:13.955Z,16.80
2023-04-10T07:21:37.095Z,17.18
2023-04-10T07:23:59.779Z,17.86
2023-04-10T07:26:22.916Z,18.10
2023-04-10T07:28:45.699Z,18.34
2023-04-10T07:31:08.626Z,18.23
2023-04-10T07:33:31.522Z,18.51
2023-04-10T07:35:54.243Z,18.79
2023-04-10T07:38:17.910Z,18.86
2023-04-10T07:40:40.655Z,19.03
2023-04-10T07:43:03.885Z,19.28
2023-04-10T07:45:27.872Z,20.12
2023-04-10T07:47:50.575Z,20.26
2023-04-10T07:50:13.214Z,20.26
2023-04-10T07:52:36.141Z,21.35
2023-04-10T07:55:02.123Z,21.38
2023-04-10T07:57:24.797Z,21.78
2023-04-10T07:59:48.082Z,20.90
2023-04-10T08:02:10.756Z,20.34
2023-04-10T08:04:34.054Z,20.37
2023-04-10T08:06:56.789Z,20.19
2023-04-10T08:09:20.540Z,20.06
2023-04-10T08:11:43.543Z,19.47
2023-04-10T08:14:07.290Z,19.61
2023-04-10T08:16:32.910Z,19.55
2023-04-10T08:18:59.682Z,19.02
2023-04-10T08:21:23.163Z,19.33
2023-04-10T08:23:48.863Z,18.88
2023-04-10T08:26:11.457Z,18.88
2023-04-10T08:28:34.103Z,18.89
2023-04-10T08:30:56.752Z,18.13
2023-04-10T08:33:19.664Z,18.20
2023-04-10T08:35:42.242Z,17.58
2023-04-10T08:38:13.631Z,17.03
2023-04-10T08:40:38.093Z,17.07
2023-04-10T08:43:00.931Z,16.67
2023-04-10T08:45:23.775Z,16.65
2023-04-10T08:47:49.781Z,16.38
2023-04-10T08:50:16.203Z,16.12
2023-04-10T08:52:44.061Z,15.93
2023-04-10T08:55:09.242Z,16.10
2023-04-10T08:57:32.870Z,16.28
2023-04-10T08:59:55.869Z,16.18
2023-04-10T09:02:19.428Z,16.38
2023-04-10T09:04:49.152Z,16.56
2023-04-10T09:07:11.720Z,16.51
2023-04-10T09:09:35.474Z,16.77
2023-04-10T09:12:01.082Z,16.73
2023-04-10T09:14:26.012Z,16.83
2023-04-10T09:16:49.272Z,17.18
2023-04-10T09:19:11.972Z,17.27
2023-04-10T09:21:34.540Z,17.48
2023-04-10T09:24:01.680Z,17.28
2023-04-10T09:26:29.104Z,17.21
2023-04-10T09:29:06.361Z,16.99
2023-04-10T09:31:39.499Z,16.99
2023-04-10T09:34:18.435Z,17.08
2023-04-10T09:36:45.573Z,17.13
2023-04-10T09:39:09.612Z,17.04
2023-04-10T09:41:32.465Z,17.17
2023-04-10T09:44:18.927Z,17.13
2023-04-10T09:46:41.738Z,17.14
2023-04-10T09:49:07.907Z,17.48
2023-04-10T09:51:35.582Z,18.07
2023-04-10T09:53:58.492Z,18.20
2023-04-10T09:56:22.739Z,18.28
2023-04-10T09:58:46.082Z,18.36
2023-04-10T10:01:08.843Z,18.09
2023-04-10T10:03:31.567Z,18.16
2023-04-10T10:05:54.415Z,18.07
2023-04-10T10:08:17.765Z,18.20
2023-04-10T10:10:53.732Z,18.38
2023-04-10T10:13:40.531Z,18.68
2023-04-10T10:16:12.732Z,18.28
2023-04-10T10:18:47.473Z,18.38
2023-04-10T10:21:10.439Z,18.34
2023-04-10T10:23:34.265Z,18.59
2023-04-10T10:26:02.303Z,18.52
2023-04-10T10:28:28.342Z,18.71
2023-04-10T10:30:51.589Z,18.27
2023-04-10T10:33:15.159Z,18.40
2023-04-10T10:35:38.040Z,18.34
2023-04-10T10:38:02.462Z,18.09
2023-04-10T10:40:52.102Z,18.52
2023-04-10T10:43:37.822Z,18.79
2023-04-10T10:46:09.209Z,18.79
2023-04-10T10:48:32.114Z,18.71
2023-04-10T10:50:57.714Z,18.62
2023-04-10T10:53:43.085Z,18.52
2023-04-10T10:56:23.585Z,19.10
2023-04-10T10:58:51.116Z,19.04
2023-04-10T11:01:14.357Z,19.23
2023-04-10T11:03:37.586Z,18.73
2023-04-10T11:06:12.965Z,18.73
2023-04-10T11:08:44.221Z,18.64
2023-04-10T11:11:15.939Z,18.85
2023-04-10T11:14:02.877Z,18.82
2023-04-10T11:16:36.008Z,18.95
2023-04-10T11:19:13.795Z,18.54
2023-04-10T11:22:05.730Z,18.10
2023-04-10T11:24:29.540Z,17.93
2023-04-10T11:26:52.213Z,17.14
2023-04-10T11:29:17.919Z,16.90
2023-04-10T11:31:40.596Z,17.07
2023-04-10T11:34:08.209Z,17.61
2023-04-10T11:36:32.257Z,17.99
2023-04-10T11:38:57.613Z,18.17
2023-04-10T11:41:20.596Z,18.09
2023-04-10T11:43:43.203Z,18.10
2023-04-10T11:46:10.449Z,18.58
2023-04-10T11:48:34.007Z,18.31
2023-04-10T11:50:56.750Z,17.68
2023-04-10T11:53:22.795Z,17.31
2023-04-10T11:55:45.514Z,17.15
2023-04-10T11:58:26.191Z,17.07
2023-04-10T12:01:00.563Z,16.87
2023-04-10T12:03:36.719Z,16.84
2023-04-10T12:05:59.553Z,16.66
2023-04-10T12:08:30.008Z,16.59
2023-04-10T12:10:53.070Z,16.59
2023-04-10T12:13:29.441Z,16.75
2023-04-10T12:15:52.345Z,16.83
2023-04-10T12:18:15.053Z,16.96
2023-04-10T12:20:37.983Z,16.83
2023-04-10T12:23:03.129Z,16.93
2023-04-10T12:25:25.862Z,17.14
2023-04-10T12:27:50.754Z,17.39
2023-04-10T12:30:13.413Z,17.27
2023-04-10T12:32:37.478Z,17.61
2023-04-10T12:35:03.273Z,17.76
2023-04-10T12:37:46.488Z,18.06
2023-04-10T12:40:09.831Z,17.75
2023-04-10T12:42:40.585Z,17.56
2023-04-10T12:45:03.576Z,17.08
2023-04-10T12:47:28.882Z,16.72
2023-04-10T12:50:07.861Z,16.49
2023-04-10T12:52:30.942Z,16.58
2023-04-10T12:54:53.822Z,16.29
2023-04-10T12:57:27.310Z,16.53
2023-04-10T12:59:50.186Z,16.10
2023-04-10T13:02:13.340Z,16.10
2023-04-10T13:04:36.172Z,16.18
2023-04-10T13:06:58.855Z,16.14
2023-04-10T13:09:22.422Z,16.12
2023-04-10T13:11:46.096Z,16.14
2023-04-10T13:14:11.291Z,16.28
2023-04-10T13:16:34.231Z,16.11
2023-04-10T13:18:57.196Z,16.11
2023-04-10T13:21:22.942Z,16.05
2023-04-10T13:23:47.137Z,16.21
2023-04-10T13:26:09.887Z,16.41
2023-04-10T13:28:32.693Z,16.45
2023-04-10T13:30:55.319Z,16.60
2023-04-10T13:33:18.303Z,16.72
2023-04-10T13:35:41.293Z,16.39
2023-04-10T13:38:04.215Z,16.29
2023-04-10T13:40:27.358Z,16.17
2023-04-10T13:42:50.062Z,16.52
2023-04-10T13:45:12.772Z,16.81
2023-04-10T13:47:35.474Z,16.93
2023-04-10T13:49:58.072Z,17.10
2023-04-10T13:52:20.894Z,17.44
2023-04-10T13:54:43.616Z,17.46
2023-04-10T13:57:06.303Z,17.66
2023-04-10T13:59:29.033Z,17.80
2023-04-10T14:01:52.803Z,17.66
2023-04-10T14:04:15.598Z,17.63
2023-04-10T14:06:38.173Z,17.28
2023-04-10T14:09:01.233Z,16.80
2023-04-10T14:11:24.002Z,16.53
2023-04-10T14:13:46.690Z,16.72
2023-04-10T14:16:09.653Z,16.69
2023-04-10T14:18:32.465Z,16.80
2023-04-10T14:20:55.302Z,16.93
2023-04-10T14:23:18.514Z,17.08
2023-04-10T14:25:41.243Z,16.96
2023-04-10T14:28:03.892Z,16.70
2023-04-10T14:30:31.091Z,16.58
2023-04-10T14:32:54.716Z,16.35
2023-04-10T14:35:17.515Z,16.17
2023-04-10T14:37:40.516Z,15.91
2023-04-10T14:40:05.061Z,15.80
2023-04-10T14:42:27.838Z,15.60
2023-04-10T14:44:50.527Z,15.45
2023-04-10T14:47:13.746Z,15.59
2023-04-10T14:49:36.608Z,15.69
2023-04-10T14:51:59.218Z,15.80
2023-04-10T14:54:23.670Z,15.74
2023-04-10T14:56:46.635Z,15.67
2023-04-10T14:59:09.406Z,15.66
2023-04-10T15:01:32.051Z,15.91
2023-04-10T15:03:55.420Z,15.70
2023-04-10T15:06:18.240Z,15.83
2023-04-10T15:08:42.640Z,15.96
2023-04-10T15:11:06.033Z,15.87
2023-04-10T15:13:28.748Z,15.91
2023-04-10T15:15:51.378Z,16.02
2023-04-10T15:18:16.173Z,16.05
2023-04-10T15:20:39.055Z,15.98
2023-04-10T15:23:02.381Z,16.07
2023-04-10T15:25:25.004Z,16.04
2023-04-10T15:27:47.656Z,15.93
2023-04-10T15:30:11.112Z,15.80
2023-04-10T15:32:37.295Z,15.80
2023-04-10T15:34:59.934Z,15.79
2023-04-10T15:37:27.961Z,15.67
2023-04-10T15:39:51.107Z,15.62
2023-04-10T15:42:16.012Z,15.80
2023-04-10T15:44:38.569Z,15.89
2023-04-10T15:47:01.180Z,15.89
2023-04-10T15:49:36.302Z,15.80
2023-04-10T15:51:59.846Z,15.81
2023-04-10T15:54:22.500Z,15.62
2023-04-10T15:56:45.504Z,15.54
2023-04-10T15:59:08.155Z,15.43
2023-04-10T16:01:31.063Z,15.59
2023-04-10T16:03:54.302Z,15.50
2023-04-10T16:06:17.269Z,15.50
2023-04-10T16:08:40.026Z,15.54
2023-04-10T16:11:02.827Z,15.42
2023-04-10T16:13:25.493Z,15.36
2023-04-10T16:15:49.830Z,15.29
2023-04-10T16:18:13.183Z,15.15
2023-04-10T16:20:36.127Z,15.14
2023-04-10T16:22:59.396Z,15.21
2023-04-10T16:25:22.277Z,15.21
2023-04-10T16:27:44.878Z,15.18
2023-04-10T16:30:08.663Z,15.08
2023-04-10T16:32:31.877Z,15.09
2023-04-10T16:34:54.653Z,15.12
2023-04-10T16:37:17.194Z,15.14
2023-04-10T16:39:40.606Z,15.08
2023-04-10T16:42:03.624Z,14.89
2023-04-10T16:44:26.268Z,14.92
2023-04-10T16:46:48.934Z,14.88
2023-04-10T16:49:11.757Z,14.76
2023-04-10T16:51:34.609Z,14.76
2023-04-10T16:53:57.434Z,14.76
2023-04-10T16:56:20.111Z,14.61
2023-04-10T16:58:42.826Z,14.66
2023-04-10T17:01:20.652Z,14.43
2023-04-10T17:03:44.712Z,14.33
2023-04-10T17:06:07.489Z,14.28
2023-04-10T17:08:30.328Z,14.09
2023-04-10T17:10:53.099Z,13.98
2023-04-10T17:13:15.931Z,13.85
2023-04-10T17:15:38.777Z,13.70
2023-04-10T17:18:01.731Z,13.53
2023-04-10T17:20:24.785Z,13.34
2023-04-10T17:22:47.716Z,13.34
2023-04-10T17:25:11.023Z,13.24
2023-04-10T17:27:33.809Z,13.19
2023-04-10T17:29:57.569Z,13.17
2023-04-10T17:32:20.550Z,13.12
2023-04-10T17:34:43.249Z,13.12
2023-04-10T17:37:05.916Z,13.06
2023-04-10T17:39:28.590Z,13.09
2023-04-10T17:41:51.714Z,13.15
2023-04-10T17:44:14.387Z,13.10
2023-04-10T17:46:37.084Z,13.15
2023-04-10T17:49:01.436Z,13.12
2023-04-10T17:51:25.164Z,13.26
2023-04-10T17:53:47.914Z,13.20
2023-04-10T17:56:19.077Z,13.24
2023-04-10T17:58:43.202Z,13.36
2023-04-10T18:01:07.373Z,13.39
2023-04-10T18:03:30.169Z,13.44
2023-04-10T18:05:53.112Z,13.42
2023-04-10T18:08:16.074Z,13.44
2023-04-10T18:10:38.703Z,13.47
2023-04-10T18:13:01.694Z,13.48
2023-04-10T18:15:28.119Z,13.44
2023-04-10T18:17:51.188Z,13.55
2023-04-10T18:20:14.919Z,13.57
2023-04-10T18:22:37.522Z,13.57
2023-04-10T18:25:01.122Z,13.67
2023-04-10T18:27:23.927Z,13.71
2023-04-10T18:29:46.859Z,13.73
2023-04-10T18:32:09.598Z,13.61
2023-04-10T18:34:32.213Z,13.53
2023-04-10T18:36:55.773Z,13.26
2023-04-10T18:39:19.744Z,13.28
2023-04-10T18:41:42.566Z,12.96
2023-04-10T18:44:05.978Z,12.88
2023-04-10T18:46:30.236Z,12.93
2023-04-10T18:48:55.452Z,12.99
2023-04-10T18:51:18.108Z,12.88
2023-04-10T18:53:41.408Z,12.87
2023-04-10T18:56:04.369Z,12.99
2023-04-10T18:58:27.177Z,13.17
2023-04-10T19:00:50.370Z,13.16
2023-04-10T19:03:14.290Z,13.16
2023-04-10T19:05:36.981Z,13.15
2023-04-10T19:08:04.714Z,13.26
2023-04-10T19:10:28.211Z,13.16
2023-04-10T19:12:53.274Z,13.09
2023-04-10T19:15:16.526Z,13.16
2023-04-10T19:17:39.468Z,13.17
2023-04-10T19:20:02.687Z,13.30
2023-04-10T19:22:25.607Z,13.22
2023-04-10T19:24:48.569Z,13.34
2023-04-10T19:27:11.325Z,13.36
2023-04-10T19:29:34.274Z,13.42
2023-04-10T19:31:56.999Z,13.44
2023-04-10T19:34:19.746Z,13.51
2023-04-10T19:36:42.333Z,13.60
2023-04-10T19:39:05.144Z,13.61
2023-04-10T19:41:27.972Z,13.55
2023-04-10T19:43:52.866Z,13.57
2023-04-10T19:46:17.801Z,13.53
2023-04-10T19:48:40.918Z,13.42
2023-04-10T19:51:05.243Z,13.26
2023-04-10T19:53:28.184Z,13.37
2023-04-10T19:55:50.784Z,13.37
2023-04-10T19:58:25.271Z,13.33
2023-04-10T20:01:02.235Z,13.42
2023-04-10T20:03:27.847Z,13.42
2023-04-10T20:05:50.686Z,13.24
2023-04-10T20:08:13.971Z,13.07
2023-04-10T20:10:36.707Z,13.05
2023-04-10T20:12:59.471Z,13.19
2023-04-10T20:15:22.174Z,13.28
2023-04-10T20:17:44.856Z,13.27
2023-04-10T20:20:08.758Z,13.33
2023-04-10T20:22:31.500Z,13.15
2023-04-10T20:24:54.247Z,13.15
2023-04-10T20:27:17.434Z,13.22
2023-04-10T20:29:40.631Z,13.05
2023-04-10T20:32:03.299Z,13.13
2023-04-10T20:34:26.050Z,12.92
2023-04-10T20:36:48.619Z,12.84
2023-04-10T20:39:11.312Z,12.99
2023-04-10T20:41:34.039Z,12.91
2023-04-10T20:43:57.507Z,12.88
2023-04-10T20:46:20.070Z,12.64
2023-04-10T20:48:42.754Z,12.48
2023-04-10T20:51:05.724Z,12.47
2023-04-10T20:53:29.484Z,12.42
2023-04-10T20:55:54.129Z,12.34
2023-04-10T20:58:16.760Z,12.24
2023-04-10T21:00:41.093Z,12.13
2023-04-10T21:03:03.952Z,12.07
2023-04-10T21:05:26.787Z,11.99
2023-04-10T21:07:49.679Z,11.79
2023-04-10T21:10:12.399Z,11.65
2023-04-10T21:12:35.410Z,11.42
2023-04-10T21:14:58.048Z,11.39
2023-04-10T21:17:22.037Z,11.34
2023-04-10T21:19:45.085Z,11.27
2023-04-10T21:22:10.251Z,11.18
2023-04-10T21:24:32.873Z,11.13
2023-04-10T21:26:55.657Z,10.99
2023-04-10T21:29:19.775Z,10.89
2023-04-10T21:31:42.435Z,10.79
2023-04-10T21:34:05.202Z,10.76
2023-04-10T21:36:27.834Z,10.66
2023-04-10T21:38:50.572Z,10.59
2023-04-10T21:41:13.557Z,10.56
2023-04-10T21:43:37.175Z,10.48
2023-04-10T21:46:02.210Z,10.46
2023-04-10T21:48:25.766Z,10.31
2023-04-10T21:50:49.775Z,10.17
2023-04-10T21:53:12.646Z,10.15
2023-04-10T21:55:35.492Z,10.07
2023-04-10T21:57:58.397Z,9.98
2023-04-10T22:00:22.836Z,10.04
2023-04-10T22:02:46.205Z,10.04
2023-04-10T22:05:09.043Z,9.95
2023-04-10T22:07:31.876Z,9.95
2023-04-10T22:09:54.794Z,9.83
2023-04-10T22:12:17.489Z,9.70
2023-04-10T22:14:40.277Z,9.60
2023-04-10T22:17:02.896Z,9.52
2023-04-10T22:19:25.850Z,9.49
2023-04-10T22:21:48.521Z,9.48
2023-04-10T22:24:11.193Z,9.48
2023-04-10T22:26:36.619Z,9.55
2023-04-10T22:28:59.240Z,9.56
2023-04-10T22:31:22.152Z,9.59
2023-04-10T22:33:45.049Z,9.69
2023-04-10T22:36:08.191Z,9.56
2023-04-10T22:38:31.218Z,9.50
2023-04-10T22:40:54.891Z,9.46
2023-04-10T22:43:17.492Z,9.40
2023-04-10T22:45:41.262Z,9.45
2023-04-10T22:48:04.050Z,9.46
2023-04-10T22:50:26.732Z,9.38
2023-04-10T22:52:49.560Z,9.31
2023-04-10T22:55:12.870Z,9.24
2023-04-10T22:57:35.916Z,9.28
2023-04-10T23:00:00.379Z,9.27
2023-04-10T23:02:23.626Z,9.14
2023-04-10T23:04:46.512Z,8.97
2023-04-10T23:07:09.267Z,9.01
2023-04-10T23:09:32.388Z,8.98
2023-04-10T23:11:55.095Z,9.03
2023-04-10T23:14:17.766Z,8.88
2023-04-10T23:16:40.514Z,8.67
2023-04-10T23:19:03.195Z,8.66
2023-04-10T23:21:27.305Z,8.66
2023-04-10T23:23:50.024Z,8.62
2023-04-10T23:26:12.767Z,8.64
2023-04-10T23:28:35.420Z,8.48
2023-04-10T23:30:58.167Z,8.36
2023-04-10T23:33:21.126Z,8.32
2023-04-10T23:35:43.921Z,8.36
2023-04-10T23:38:06.609Z,8.29
2023-04-10T23:40:29.856Z,8.26
2023-04-10T23:42:52.659Z,8.24
2023-04-10T23:45:15.654Z,8.26
2023-04-10T23:47:38.731Z,8.12
2023-04-10T23:50:01.625Z,8.24
2023-04-10T23:52:24.432Z,8.28
2023-04-10T23:54:47.088Z,8.26
2023-04-10T23:57:09.954Z,8.26
2023-04-10T23:59:32.653Z,8.21
